Time;durP1;ratioP1;P1;durP2;ratioP2;P2;SDS_P1;SDS_P2;PMS_P1;PMS_P2;Temp;Humidity;BMP_temperature;BMP_pressure;BME280_temperature;BME280_humidity;BME280_pressure;Samples;Min_cycle;Max_cycle;Signal;HPM_P1;HPM_P2
2021/11/19 00:00:16;;;;;;;13.70;6.30;;;;;;;12.79;77.21;102940.47;4985011;28;20056;-70
2021/11/19 00:02:41;;;;;;;14.48;6.47;;;;;;;12.79;76.96;102937.84;4965124;28;20148;-70
2021/11/19 00:05:07;;;;;;;17.42;7.20;;;;;;;12.77;77.07;102939.50;4974638;28;20511;-70
2021/11/19 00:07:33;;;;;;;16.27;6.95;;;;;;;12.79;77.04;102940.47;4974877;28;20088;-71
2021/11/19 00:09:59;;;;;;;15.38;6.60;;;;;;;12.79;77.44;102938.75;4966582;28;20050;-70
2021/11/19 00:12:24;;;;;;;11.50;6.50;;;;;;;12.83;77.49;102942.34;4984907;28;20545;-70
2021/11/19 00:14:50;;;;;;;18.27;7.47;;;;;;;12.86;77.56;102945.09;4975197;28;20045;-71
2021/11/19 00:17:15;;;;;;;17.58;7.38;;;;;;;12.96;77.48;102945.47;4982198;28;20486;-70
2021/11/19 00:19:43;;;;;;;19.25;7.90;;;;;;;13.02;77.64;102950.94;4988137;28;20034;-71
2021/11/19 00:22:10;;;;;;;19.90;7.18;;;;;;;13.14;77.95;102947.91;4980551;28;20930;-70
2021/11/19 00:24:37;;;;;;;14.80;7.00;;;;;;;13.21;77.85;102949.91;4990868;28;21027;-70
2021/11/19 00:27:04;;;;;;;15.40;6.80;;;;;;;13.28;77.81;102957.16;4981357;28;20299;-70
2021/11/19 00:29:30;;;;;;;17.05;6.88;;;;;;;13.34;77.88;102953.84;4990593;28;20064;-69
2021/11/19 00:31:55;;;;;;;19.55;6.90;;;;;;;13.42;77.82;102957.63;4955595;28;20735;-69
2021/11/19 00:34:21;;;;;;;13.80;6.05;;;;;;;13.52;77.67;102969.31;4994153;28;20129;-70
2021/11/19 00:36:47;;;;;;;14.60;5.80;;;;;;;13.59;77.59;102953.88;4985149;28;20120;-70
2021/11/19 00:39:17;;;;;;;15.15;6.07;;;;;;;13.59;77.38;102953.88;4991281;28;20095;-70
2021/11/19 00:41:45;;;;;;;13.48;5.65;;;;;;;13.65;77.44;102950.56;4989867;28;20064;-69
2021/11/19 00:44:11;;;;;;;12.05;5.38;;;;;;;13.69;77.40;102942.84;5009463;28;20489;-69
2021/11/19 00:46:38;;;;;;;12.65;5.50;;;;;;;13.75;77.27;102943.03;5005776;28;20417;-70
2021/11/19 00:49:05;;;;;;;13.23;5.70;;;;;;;13.83;76.95;102945.94;4982582;28;20247;-70
2021/11/19 00:51:35;;;;;;;14.50;5.30;;;;;;;13.84;76.73;102944.19;5008655;28;21198;-69
2021/11/19 00:54:03;;;;;;;11.43;4.63;;;;;;;13.87;76.74;102955.66;5007579;28;20099;-70
2021/11/19 00:56:33;;;;;;;10.05;5.07;;;;;;;13.87;76.71;102952.16;5004033;28;20044;-69
2021/11/19 00:58:59;;;;;;;12.98;5.05;;;;;;;13.95;76.67;102942.81;5004429;28;20053;-71
2021/11/19 01:01:35;;;;;;;16.65;5.68;;;;;;;13.94;76.58;102938.41;5006203;28;20135;-70
2021/11/19 01:04:01;;;;;;;12.93;5.45;;;;;;;14.00;76.46;102938.59;4989520;28;20084;-70
2021/11/19 01:06:27;;;;;;;15.57;5.07;;;;;;;14.01;76.52;102938.66;4992528;28;20074;-68
2021/11/19 01:08:53;;;;;;;11.48;5.45;;;;;;;14.05;76.36;102940.53;5002438;28;20040;-70
2021/11/19 01:11:21;;;;;;;10.80;5.45;;;;;;;14.07;76.28;102932.72;5007042;28;20052;-70
2021/11/19 01:13:49;;;;;;;13.73;6.00;;;;;;;14.11;76.12;102939.84;4993153;28;22161;-70
2021/11/19 01:16:48;;;;;;;11.20;5.60;;;;;;;14.15;75.90;102945.22;4985570;28;20061;-70
2021/11/19 01:19:27;;;;;;;15.38;5.53;;;;;;;14.20;75.92;102940.13;4995454;28;20048;-70
2021/11/19 01:21:56;;;;;;;11.38;5.40;;;;;;;14.22;76.01;102939.31;4988097;28;20044;-70
2021/11/19 01:24:23;;;;;;;12.93;5.43;;;;;;;14.25;75.98;102937.66;5011896;28;20538;-69
2021/11/19 01:26:48;;;;;;;11.20;5.78;;;;;;;14.28;75.94;102930.75;5011855;28;20756;-70
2021/11/19 01:29:16;;;;;;;12.23;5.40;;;;;;;14.26;75.66;102936.81;4981734;28;20057;-71
2021/11/19 01:31:47;;;;;;;17.88;5.82;;;;;;;14.26;75.67;102936.81;5007796;28;20469;-70
2021/11/19 01:34:12;;;;;;;13.90;5.50;;;;;;;14.30;75.65;102942.19;4983811;28;20044;-70
2021/11/19 01:36:38;;;;;;;15.10;5.18;;;;;;;14.33;75.67;102937.06;5012748;28;20041;-70
2021/11/19 01:39:05;;;;;;;13.35;5.47;;;;;;;14.36;75.55;102939.75;5002529;28;20751;-70
2021/11/19 01:41:40;;;;;;;12.50;5.55;;;;;;;14.34;75.53;102941.44;5004249;28;20052;-70
2021/11/19 01:44:17;;;;;;;14.27;5.82;;;;;;;14.42;75.35;102932.09;5073242;27;20051;-70
2021/11/19 01:46:46;;;;;;;12.10;5.60;;;;;;;14.47;75.35;102933.13;5070979;27;20518;-70
2021/11/19 01:49:12;;;;;;;14.07;5.80;;;;;;;14.47;75.19;102932.22;5067397;27;20130;-72
2021/11/19 01:51:46;;;;;;;14.55;5.78;;;;;;;14.52;75.11;102941.13;5073395;27;20047;-70
2021/11/19 01:54:14;;;;;;;13.35;5.57;;;;;;;14.59;74.64;102938.75;5068315;28;20063;-70
2021/11/19 01:56:51;;;;;;;14.27;5.68;;;;;;;14.57;74.91;102932.59;5056091;27;20696;-70
2021/11/19 01:59:29;;;;;;;14.90;5.97;;;;;;;14.60;74.93;102930.03;5068051;27;20032;-71
2021/11/19 02:02:09;;;;;;;14.43;5.30;;;;;;;14.66;74.70;102936.28;5051628;28;20052;-71
2021/11/19 02:04:48;;;;;;;15.02;5.88;;;;;;;14.61;74.69;102934.44;5068409;27;20058;-71
2021/11/19 02:07:25;;;;;;;14.60;5.90;;;;;;;14.63;74.60;102934.50;5063617;28;20109;-70
2021/11/19 02:10:03;;;;;;;12.73;5.47;;;;;;;14.65;74.66;102932.78;5071860;27;20043;-71
2021/11/19 02:12:56;;;;;;;14.13;5.50;;;;;;;14.65;74.91;102935.41;5052404;28;20047;-70
2021/11/19 02:15:25;;;;;;;16.88;5.40;;;;;;;14.65;74.93;102935.41;5051269;28;20055;-70
2021/11/19 02:17:53;;;;;;;15.43;5.75;;;;;;;14.64;74.90;102925.75;5046168;28;20781;-70
2021/11/19 02:20:25;;;;;;;11.80;5.28;;;;;;;14.68;74.93;102934.63;5066147;27;20346;-71
2021/11/19 02:22:53;;;;;;;15.13;5.97;;;;;;;14.63;74.90;102933.59;5023729;28;20059;-71
2021/11/19 02:25:34;;;;;;;13.90;5.78;;;;;;;14.67;74.98;102933.72;5047391;28;20074;-71
2021/11/19 02:28:04;;;;;;;15.57;5.57;;;;;;;14.64;74.99;102925.75;5051324;28;20036;-71
2021/11/19 02:30:34;;;;;;;11.98;5.53;;;;;;;14.65;75.16;102927.53;5047182;28;20063;-71
2021/11/19 02:33:07;;;;;;;13.50;5.13;;;;;;;14.69;74.99;102925.91;5054344;28;20116;-71
2021/11/19 02:36:05;;;;;;;16.02;5.63;;;;;;;14.70;75.00;102920.66;5047889;28;20134;-71
2021/11/19 02:38:53;;;;;;;13.98;5.10;;;;;;;14.72;74.96;102913.75;5055744;27;20067;-71
2021/11/19 02:41:21;;;;;;;13.07;5.00;;;;;;;14.76;74.82;102914.75;5066203;27;20523;-71
2021/11/19 02:43:55;;;;;;;13.80;5.45;;;;;;;14.66;75.07;102905.69;5067776;27;20055;-71
2021/11/19 02:46:45;;;;;;;12.63;5.30;;;;;;;14.67;74.97;102901.31;5068271;28;20097;-69
2021/11/19 02:49:11;;;;;;;17.95;6.07;;;;;;;14.70;74.89;102899.66;5041500;28;23236;-69
2021/11/19 02:51:37;;;;;;;13.45;5.78;;;;;;;14.68;74.94;102906.63;5064842;27;20153;-71
2021/11/19 02:54:05;;;;;;;15.27;5.57;;;;;;;14.74;74.87;102905.91;5047665;27;20044;-70
2021/11/19 02:56:31;;;;;;;14.93;5.70;;;;;;;14.72;74.72;102911.13;5062168;27;20058;-70
2021/11/19 02:58:58;;;;;;;20.83;5.65;;;;;;;14.70;74.81;102911.94;5064612;27;20484;-71
2021/11/19 03:01:30;;;;;;;17.15;5.72;;;;;;;14.76;74.86;102912.13;5063615;27;20036;-70
2021/11/19 03:04:13;;;;;;;13.43;5.57;;;;;;;14.76;74.51;102905.09;5059485;27;20131;-70
2021/11/19 03:06:48;;;;;;;12.65;5.50;;;;;;;14.77;74.42;102909.50;5062325;27;20080;-70
2021/11/19 03:09:15;;;;;;;12.25;5.28;;;;;;;14.79;74.26;102906.94;5065283;28;20323;-69
2021/11/19 03:11:41;;;;;;;17.50;5.80;;;;;;;14.77;74.19;102903.38;5069794;28;20122;-69
2021/11/19 03:14:08;;;;;;;12.82;5.32;;;;;;;14.74;74.51;102908.53;5058517;27;20143;-70
2021/11/19 03:16:34;;;;;;;15.65;5.50;;;;;;;14.71;74.23;102901.44;5053633;28;20040;-70
2021/11/19 03:19:00;;;;;;;16.63;5.82;;;;;;;14.69;74.54;102907.53;5055341;27;20039;-70
2021/11/19 03:21:25;;;;;;;15.38;6.43;;;;;;;14.67;74.63;102911.84;5072117;27;20035;-70
2021/11/19 03:23:53;;;;;;;18.88;6.55;;;;;;;14.66;74.76;102913.56;5060212;27;20551;-70
2021/11/19 03:26:19;;;;;;;19.52;6.38;;;;;;;14.65;74.67;102906.53;5060113;28;20358;-71
2021/11/19 03:28:45;;;;;;;16.13;5.85;;;;;;;14.64;74.92;102906.50;5039458;28;20031;-71
2021/11/19 03:31:13;;;;;;;14.77;6.03;;;;;;;14.67;74.64;102910.09;5068023;28;20131;-72
2021/11/19 03:33:42;;;;;;;15.32;6.18;;;;;;;14.67;74.62;102910.09;5035951;28;20100;-70
2021/11/19 03:36:09;;;;;;;14.45;5.75;;;;;;;14.67;74.24;102910.09;5049269;28;20261;-70
2021/11/19 03:38:36;;;;;;;16.73;6.13;;;;;;;14.67;74.48;102907.47;5042618;28;20511;-69
2021/11/19 03:41:03;;;;;;;16.40;6.53;;;;;;;14.62;74.74;102906.47;5049878;28;20451;-70
2021/11/19 03:43:34;;;;;;;15.48;6.30;;;;;;;14.65;74.42;102910.88;5071068;28;20035;-70
2021/11/19 03:46:04;;;;;;;13.32;6.07;;;;;;;14.62;74.45;102909.09;5044478;28;20032;-67
2021/11/19 03:48:30;;;;;;;16.00;6.00;;;;;;;14.61;74.55;102912.53;5064915;28;20027;-70
2021/11/19 03:51:11;;;;;;;13.45;6.07;;;;;;;14.66;74.38;102913.56;5055526;28;20031;-70
2021/11/19 03:53:36;;;;;;;17.73;6.65;;;;;;;14.59;74.55;102908.97;5069199;28;20044;-71
2021/11/19 03:56:02;;;;;;;16.48;6.43;;;;;;;14.60;74.46;102914.28;5072474;27;20051;-70
2021/11/19 03:58:33;;;;;;;16.30;6.53;;;;;;;14.62;74.38;102919.59;5069632;28;20039;-70
2021/11/19 04:01:20;;;;;;;16.67;6.53;;;;;;;14.60;74.57;102919.53;5055775;28;20047;-70
2021/11/19 04:03:47;;;;;;;19.08;6.45;;;;;;;14.68;74.58;102918.88;5058764;27;20055;-70
2021/11/19 04:06:13;;;;;;;20.23;6.93;;;;;;;14.69;74.43;102921.53;5050718;28;20109;-71
2021/11/19 04:08:39;;;;;;;16.63;6.57;;;;;;;14.72;74.44;102921.63;5061511;27;20047;-71
2021/11/19 04:11:05;;;;;;;17.80;6.65;;;;;;;14.69;74.45;102921.53;5062704;27;20124;-70
2021/11/19 04:13:30;;;;;;;20.10;6.25;;;;;;;14.72;74.24;102916.38;5046374;28;20068;-70
2021/11/19 04:15:58;;;;;;;15.48;6.47;;;;;;;14.70;74.21;102914.56;5071856;27;20436;-70
2021/11/19 04:18:24;;;;;;;16.77;6.38;;;;;;;14.70;74.33;102922.44;5055178;28;20089;-70
2021/11/19 04:20:51;;;;;;;19.30;6.68;;;;;;;14.71;74.38;102925.09;5060145;27;20727;-71
2021/11/19 04:23:17;;;;;;;14.13;6.30;;;;;;;14.78;74.12;102913.91;5073374;27;20051;-72
2021/11/19 04:25:43;;;;;;;18.10;6.32;;;;;;;14.76;74.11;102923.47;5068652;27;20092;-70
2021/11/19 04:28:08;;;;;;;13.85;6.20;;;;;;;14.72;74.27;102924.25;5072534;27;20448;-71
2021/11/19 04:30:37;;;;;;;15.48;6.18;;;;;;;14.76;74.06;102926.09;5053758;28;20070;-70
2021/11/19 04:33:03;;;;;;;13.23;5.65;;;;;;;14.71;74.19;102932.06;5056993;27;21284;-70
2021/11/19 04:35:30;;;;;;;15.57;6.03;;;;;;;14.58;74.75;102922.94;5075478;27;20043;-69
2021/11/19 04:37:56;;;;;;;13.20;5.85;;;;;;;14.64;74.55;102930.13;5067798;28;20055;-70
2021/11/19 04:40:22;;;;;;;16.80;5.68;;;;;;;14.69;74.27;102923.28;5073689;27;20058;-71
2021/11/19 04:42:48;;;;;;;11.68;5.53;;;;;;;14.73;74.08;102927.75;5067598;28;20043;-71
2021/11/19 04:45:16;;;;;;;14.43;5.28;;;;;;;14.69;74.13;102923.28;5060836;27;20465;-70
2021/11/19 04:47:41;;;;;;;13.75;5.20;;;;;;;14.68;74.12;102927.63;5057930;28;20101;-69
2021/11/19 04:50:10;;;;;;;18.40;5.38;;;;;;;14.65;74.30;102924.00;5065029;28;20040;-70
2021/11/19 04:52:35;;;;;;;16.67;5.85;;;;;;;14.69;74.06;102926.78;5074230;27;20506;-70
2021/11/19 04:55:01;;;;;;;12.60;5.30;;;;;;;14.68;74.14;102924.13;5062977;27;20043;-70
2021/11/19 04:57:26;;;;;;;16.58;5.80;;;;;;;14.69;73.94;102921.53;5054902;28;20036;-70
2021/11/19 04:59:51;;;;;;;14.60;5.35;;;;;;;14.71;74.04;102921.56;5073368;27;20511;-70
2021/11/19 05:02:20;;;;;;;17.73;5.90;;;;;;;14.70;74.02;102928.53;5072808;27;20071;-71
2021/11/19 05:04:46;;;;;;;14.30;5.30;;;;;;;14.71;73.87;102927.72;5061852;27;20188;-71
2021/11/19 05:07:11;;;;;;;12.50;5.35;;;;;;;14.66;74.13;102928.41;5047083;28;20069;-71
2021/11/19 05:09:37;;;;;;;13.40;5.38;;;;;;;14.66;74.14;102923.16;5070190;27;20081;-70
2021/11/19 05:12:13;;;;;;;13.45;5.30;;;;;;;14.67;74.14;102927.59;5064754;28;20040;-70
2021/11/19 05:14:40;;;;;;;16.75;5.85;;;;;;;14.66;74.24;102921.44;5051737;28;20044;-70
2021/11/19 05:17:07;;;;;;;13.55;5.55;;;;;;;14.63;74.20;102916.13;5045969;27;20882;-70
2021/11/19 05:19:33;;;;;;;14.88;5.50;;;;;;;14.66;73.83;102920.53;5064088;27;20392;-70
2021/11/19 05:21:59;;;;;;;15.65;5.20;;;;;;;14.69;73.77;102912.78;5047192;28;20039;-70
2021/11/19 05:24:24;;;;;;;12.00;5.22;;;;;;;14.59;74.16;102915.13;5072189;27;20682;-71
2021/11/19 05:26:50;;;;;;;14.73;5.30;;;;;;;14.66;73.69;102910.94;5062886;28;20035;-71
2021/11/19 05:29:17;;;;;;;15.43;5.10;;;;;;;14.66;73.74;102921.44;5050019;27;20047;-70
2021/11/19 05:31:43;;;;;;;16.70;5.18;;;;;;;14.66;73.67;102913.56;5058074;27;20036;-69
2021/11/19 05:34:09;;;;;;;16.70;5.57;;;;;;;14.62;73.92;102922.22;5050292;28;20133;-69
2021/11/19 05:36:34;;;;;;;14.77;5.45;;;;;;;14.59;73.93;102924.72;5070579;27;20130;-69
2021/11/19 05:39:00;;;;;;;13.10;4.95;;;;;;;14.61;73.94;102923.94;5052125;27;20884;-69
2021/11/19 05:41:26;;;;;;;13.48;4.85;;;;;;;14.59;73.91;102924.72;5068972;28;20105;-69
2021/11/19 05:43:54;;;;;;;10.77;5.03;;;;;;;14.60;73.78;102922.16;5069453;27;20061;-70
2021/11/19 05:46:21;;;;;;;12.85;4.50;;;;;;;14.64;73.87;102931.00;5056470;28;20035;-70
2021/11/19 05:48:49;;;;;;;11.85;5.15;;;;;;;14.59;74.05;102930.88;5042628;28;20039;-71
2021/11/19 05:51:14;;;;;;;15.45;5.15;;;;;;;14.59;73.95;102933.50;5068348;28;20920;-71
2021/11/19 05:53:40;;;;;;;13.68;5.00;;;;;;;14.58;74.01;102929.09;5059814;27;20553;-71
2021/11/19 05:56:05;;;;;;;10.73;5.00;;;;;;;14.61;73.96;102933.53;5049114;28;20050;-71
2021/11/19 05:58:32;;;;;;;13.18;4.20;;;;;;;14.66;73.77;102931.94;5064272;27;20050;-71
2021/11/19 06:01:00;;;;;;;14.80;4.47;;;;;;;14.60;73.86;102935.28;5057826;27;20059;-70
2021/11/19 06:03:26;;;;;;;12.07;4.30;;;;;;;14.57;74.13;102936.94;5067511;28;20066;-70
2021/11/19 06:05:52;;;;;;;14.15;4.63;;;;;;;14.54;74.01;102929.84;5052990;28;20467;-71
2021/11/19 06:08:17;;;;;;;14.32;4.53;;;;;;;14.56;73.96;102929.91;5053199;28;20893;-71
2021/11/19 06:10:51;;;;;;;9.60;4.32;;;;;;;14.57;73.95;102929.06;5043262;27;20123;-71
2021/11/19 06:13:23;;;;;;;13.70;4.50;;;;;;;14.59;73.77;102941.38;5047416;28;20127;-70
2021/11/19 06:16:08;;;;;;;11.80;4.15;;;;;;;14.62;73.82;102943.22;5073463;27;20089;-70
2021/11/19 06:18:37;;;;;;;10.10;4.15;;;;;;;14.59;73.85;102953.59;5066647;28;20047;-71
2021/11/19 06:21:11;;;;;;;13.77;4.38;;;;;;;14.57;73.94;102947.44;5022874;27;20547;-72
2021/11/19 06:23:41;;;;;;;14.10;4.17;;;;;;;14.53;74.45;102935.03;5068526;28;20043;-71
2021/11/19 06:26:09;;;;;;;12.32;3.95;;;;;;;14.54;73.93;102929.84;5045789;28;20050;-71
2021/11/19 06:28:40;;;;;;;15.43;3.65;;;;;;;14.49;73.97;102936.69;5048602;28;20044;-70
2021/11/19 06:31:07;;;;;;;12.63;4.05;;;;;;;14.51;73.96;102931.50;5070299;27;20338;-71
2021/11/19 06:33:32;;;;;;;12.38;4.03;;;;;;;14.45;74.08;102940.09;5064600;27;20788;-71
2021/11/19 06:35:57;;;;;;;14.70;4.45;;;;;;;14.46;74.24;102940.94;5065903;27;20071;-70
2021/11/19 06:38:23;;;;;;;10.13;4.25;;;;;;;14.39;74.22;102947.78;5071365;28;20039;-70
2021/11/19 06:40:48;;;;;;;11.15;4.20;;;;;;;14.38;74.23;102940.75;5061409;27;20047;-70
2021/11/19 06:43:14;;;;;;;17.05;4.28;;;;;;;14.39;74.53;102944.25;5059971;27;20032;-70
2021/11/19 06:45:40;;;;;;;10.70;3.83;;;;;;;14.42;74.07;102941.72;5045381;28;20122;-69
2021/11/19 06:48:06;;;;;;;12.05;4.00;;;;;;;14.37;74.19;102949.44;5068868;27;20162;-70
2021/11/19 06:50:34;;;;;;;12.40;3.90;;;;;;;14.30;74.17;102947.44;5064903;27;20032;-71
2021/11/19 06:53:00;;;;;;;10.55;3.97;;;;;;;14.22;74.36;102946.31;5052226;28;20800;-70
2021/11/19 06:55:26;;;;;;;12.27;3.95;;;;;;;14.21;74.25;102947.13;5071137;27;20063;-70
2021/11/19 06:57:52;;;;;;;15.25;4.00;;;;;;;14.14;74.23;102956.56;5067942;27;20436;-70
2021/11/19 07:00:24;;;;;;;11.60;4.18;;;;;;;14.10;74.72;102959.03;5046822;28;20051;-70
2021/11/19 07:02:50;;;;;;;17.63;3.70;;;;;;;14.04;75.06;102964.06;5061684;28;20104;-70
2021/11/19 07:05:16;;;;;;;9.52;3.65;;;;;;;14.03;75.34;102957.03;5047219;28;20515;-70
2021/11/19 07:07:42;;;;;;;11.43;3.95;;;;;;;14.05;75.16;102964.13;5061943;28;20044;-71
2021/11/19 07:10:08;;;;;;;12.75;3.38;;;;;;;14.06;75.12;102971.16;5063230;28;20027;-70
2021/11/19 07:12:34;;;;;;;12.52;4.05;;;;;;;14.07;75.37;102982.56;5075998;28;20032;-70
2021/11/19 07:14:59;;;;;;;10.68;3.58;;;;;;;14.06;75.42;102973.78;5053840;28;20658;-70
2021/11/19 07:17:25;;;;;;;8.52;3.22;;;;;;;14.15;75.24;102976.69;5066076;28;20514;-70
2021/11/19 07:19:50;;;;;;;9.00;3.25;;;;;;;14.17;75.15;102977.66;5065272;27;20074;-70
2021/11/19 07:22:16;;;;;;;11.57;3.55;;;;;;;14.19;75.28;102983.84;5052274;28;20028;-70
2021/11/19 07:24:42;;;;;;;12.05;3.53;;;;;;;14.25;74.78;102979.63;5069062;28;20151;-70
2021/11/19 07:27:08;;;;;;;9.98;2.90;;;;;;;14.24;74.88;102981.34;5058978;28;20396;-70
2021/11/19 07:29:34;;;;;;;9.23;3.50;;;;;;;14.23;74.80;102982.19;5070153;27;20032;-70
2021/11/19 07:32:01;;;;;;;12.25;3.40;;;;;;;14.27;74.68;102991.06;5066382;27;20634;-70
2021/11/19 07:34:26;;;;;;;11.40;3.40;;;;;;;14.19;74.94;102985.56;5044221;28;20192;-70
2021/11/19 07:36:51;;;;;;;11.20;3.33;;;;;;;14.24;74.90;102989.22;5054154;27;20139;-70
2021/11/19 07:39:17;;;;;;;10.68;3.17;;;;;;;14.34;74.76;102993.00;5071287;28;20071;-70
2021/11/19 07:41:43;;;;;;;9.02;3.13;;;;;;;14.33;74.33;102992.16;5074670;28;20144;-70
2021/11/19 07:44:08;;;;;;;8.13;3.00;;;;;;;14.40;74.35;102999.38;5050852;28;20092;-70
2021/11/19 07:46:34;;;;;;;10.43;2.92;;;;;;;14.43;74.27;102994.25;5057702;28;21008;-70
2021/11/19 07:49:00;;;;;;;14.27;3.30;;;;;;;14.48;74.04;102997.00;5054671;28;20047;-71
2021/11/19 07:51:29;;;;;;;11.93;3.30;;;;;;;14.54;73.75;103005.97;5062218;28;20089;-71
2021/11/19 07:53:55;;;;;;;8.20;3.00;;;;;;;14.56;73.59;103011.28;5052404;28;20543;-72
2021/11/19 07:56:29;;;;;;;11.10;3.22;;;;;;;14.64;73.32;103011.53;5061105;28;20039;-71
2021/11/19 07:58:54;;;;;;;;;;;;;;;14.74;73.43;103019.72;5030267;28;20376;-71
2021/11/19 08:01:19;;;;;;;7.00;2.88;;;;;;;14.75;72.99;103012.72;5061768;28;19927;-71
2021/11/19 08:03:45;;;;;;;9.52;2.97;;;;;;;14.77;72.81;103021.53;5059979;28;20114;-71
2021/11/19 08:06:10;;;;;;;9.93;3.00;;;;;;;14.78;72.94;103016.31;5067219;27;20036;-71
2021/11/19 08:08:37;;;;;;;6.80;2.90;;;;;;;14.81;72.83;103020.78;5063754;28;20043;-70
2021/11/19 08:11:07;;;;;;;10.82;2.88;;;;;;;14.84;72.73;103012.97;5057305;27;20047;-70
2021/11/19 08:13:33;;;;;;;10.90;3.10;;;;;;;14.84;72.65;103018.25;5062120;28;20039;-69
2021/11/19 08:15:59;;;;;;;11.95;3.08;;;;;;;14.86;72.81;103024.44;5071073;28;20222;-69
2021/11/19 08:18:31;;;;;;;13.30;3.05;;;;;;;14.88;72.68;103025.38;5067776;28;20046;-69
2021/11/19 08:20:58;;;;;;;7.90;2.80;;;;;;;14.94;72.56;103026.44;5045265;28;20047;-70
2021/11/19 08:23:34;;;;;;;9.32;2.80;;;;;;;14.98;72.46;103019.53;5048469;28;20112;-70
2021/11/19 08:26:24;;;;;;;7.95;2.80;;;;;;;15.00;72.22;103020.50;5067052;28;20072;-71
2021/11/19 08:28:50;;;;;;;15.30;3.25;;;;;;;15.00;72.15;103016.09;5035021;28;20075;-71
2021/11/19 08:31:18;;;;;;;13.05;2.92;;;;;;;15.01;72.20;103017.88;5065550;28;20470;-70
2021/11/19 08:33:44;;;;;;;9.05;2.70;;;;;;;14.97;72.29;103012.50;5070816;28;20134;-70
2021/11/19 08:36:10;;;;;;;8.55;2.80;;;;;;;15.04;72.00;103017.09;5064785;28;20065;-71
2021/11/19 08:38:36;;;;;;;9.75;2.92;;;;;;;15.10;71.79;103016.38;5044182;28;20561;-70
2021/11/19 08:41:02;;;;;;;11.80;2.90;;;;;;;15.13;71.69;103014.72;5021274;28;20548;-70
2021/11/19 08:43:31;;;;;;;8.27;2.85;;;;;;;15.12;72.07;103020.84;5048443;28;20080;-71
2021/11/19 08:45:58;;;;;;;10.65;3.00;;;;;;;15.15;71.79;103031.44;5063146;28;20027;-70
2021/11/19 08:48:26;;;;;;;11.27;3.03;;;;;;;15.20;71.36;103027.19;5066124;27;20040;-71
2021/11/19 08:50:52;;;;;;;7.95;3.30;;;;;;;15.27;71.17;103034.41;5050407;28;20130;-71
2021/11/19 08:53:18;;;;;;;9.52;3.38;;;;;;;15.30;71.06;103023.09;5049780;28;20069;-70
2021/11/19 08:55:47;;;;;;;9.55;3.05;;;;;;;15.23;70.76;103032.56;5073528;28;20453;-70
2021/11/19 08:58:17;;;;;;;10.55;3.33;;;;;;;15.22;70.32;103038.66;5069336;28;20569;-70
2021/11/19 09:00:43;;;;;;;13.90;3.42;;;;;;;15.07;70.76;103037.28;5066371;27;20125;-70
2021/11/19 09:03:10;;;;;;;12.93;3.35;;;;;;;14.86;71.05;103030.59;5040237;28;20197;-70
2021/11/19 09:05:37;;;;;;;10.68;3.53;;;;;;;14.78;71.50;103034.69;5049026;28;20048;-70
2021/11/19 09:08:05;;;;;;;10.90;3.60;;;;;;;14.78;71.46;103042.56;5070388;27;20055;-70
2021/11/19 09:10:30;;;;;;;12.00;3.33;;;;;;;14.93;71.97;103035.19;5056160;27;20466;-70
2021/11/19 09:12:56;;;;;;;9.07;3.05;;;;;;;15.15;71.12;103036.69;5062154;27;20024;-68
2021/11/19 09:15:23;;;;;;;12.13;2.90;;;;;;;15.25;70.86;103041.34;5050428;27;20043;-69
2021/11/19 09:17:56;;;;;;;9.93;3.20;;;;;;;15.35;70.53;103042.53;5065349;28;20046;-70
2021/11/19 09:20:50;;;;;;;9.70;3.95;;;;;;;15.35;70.34;103042.53;5048389;28;20043;-69
2021/11/19 09:23:22;;;;;;;7.22;3.53;;;;;;;15.44;69.86;103040.13;5047604;28;20043;-68
2021/11/19 09:25:53;;;;;;;7.78;3.30;;;;;;;15.37;69.64;103040.81;5062469;28;20089;-69
2021/11/19 09:28:23;;;;;;;12.63;3.72;;;;;;;15.21;70.20;103042.13;5071788;27;20911;-69
2021/11/19 09:30:59;;;;;;;9.13;3.40;;;;;;;15.23;70.11;103037.81;5055696;27;20126;-69
2021/11/19 09:33:24;;;;;;;11.07;3.33;;;;;;;15.25;70.39;103041.34;5060710;28;20031;-70
2021/11/19 09:35:50;;;;;;;8.90;3.17;;;;;;;15.22;70.31;103041.28;5050017;28;20471;-70
2021/11/19 09:38:17;;;;;;;10.15;3.10;;;;;;;15.26;70.09;103034.34;5066270;27;20606;-68
2021/11/19 09:40:57;;;;;;;8.63;2.65;;;;;;;15.34;69.70;103039.00;5065114;28;20035;-68
2021/11/19 09:43:34;;;;;;;9.38;2.90;;;;;;;15.32;69.61;103050.31;5067236;27;20522;-69
2021/11/19 09:46:37;;;;;;;8.25;2.80;;;;;;;15.30;69.91;103045.03;5044252;28;20047;-68
2021/11/19 09:49:06;;;;;;;8.32;2.80;;;;;;;15.28;69.83;103033.56;5058369;27;20035;-68
2021/11/19 09:51:56;;;;;;;9.30;2.70;;;;;;;15.32;69.94;103042.41;5062084;28;20075;-68
2021/11/19 09:54:40;;;;;;;8.20;3.00;;;;;;;15.37;69.19;103046.06;5064157;27;20041;-69
2021/11/19 09:57:39;;;;;;;9.50;2.70;;;;;;;15.36;69.51;103042.56;5056757;27;20055;-69
2021/11/19 10:00:27;;;;;;;7.82;2.70;;;;;;;15.32;69.20;103045.94;5054342;27;20054;-68
2021/11/19 10:03:16;;;;;;;10.00;2.60;;;;;;;15.34;69.18;103036.38;5033023;27;20665;-69
2021/11/19 10:06:11;;;;;;;9.43;2.78;;;;;;;15.30;69.38;103050.28;5087992;27;20307;-67
2021/11/19 10:08:57;;;;;;;5.55;2.50;;;;;;;15.32;69.34;103053.81;5042412;28;20043;-68
2021/11/19 10:11:51;;;;;;;12.70;2.60;;;;;;;15.30;69.34;103050.28;5070334;27;20772;-67
2021/11/19 10:14:48;;;;;;;8.82;2.50;;;;;;;15.33;69.09;103052.97;5064895;27;20032;-68
2021/11/19 10:17:34;;;;;;;7.10;2.40;;;;;;;15.32;69.31;103051.19;5066456;28;20052;-68
2021/11/19 10:20:09;;;;;;;7.07;2.30;;;;;;;15.40;69.22;103057.56;5035066;28;20080;-69
2021/11/19 10:22:36;;;;;;;7.95;2.42;;;;;;;15.43;69.13;103054.13;5030894;28;20047;-69
2021/11/19 10:25:17;;;;;;;8.15;2.45;;;;;;;15.50;69.26;103065.69;5055255;27;20135;-68
2021/11/19 10:27:45;;;;;;;6.28;2.33;;;;;;;15.56;68.24;103055.38;5040445;28;20396;-70
2021/11/19 10:30:20;;;;;;;10.65;2.15;;;;;;;15.66;68.08;103054.81;5036962;28;20474;-69
2021/11/19 10:32:45;;;;;;;9.15;2.40;;;;;;;15.79;67.44;103049.94;5047886;28;20035;-68
2021/11/19 10:35:26;;;;;;;4.72;2.30;;;;;;;15.95;66.97;103045.94;5041226;28;22071;-68
2021/11/19 10:38:06;;;;;;;9.38;2.28;;;;;;;15.96;67.15;103038.94;5064240;27;20104;-68
2021/11/19 10:40:35;;;;;;;8.18;2.42;;;;;;;15.97;66.99;103046.00;5064189;28;20535;-67
2021/11/19 10:43:07;;;;;;;7.47;2.55;;;;;;;16.03;67.05;103039.13;5059546;28;20040;-68
2021/11/19 10:45:54;;;;;;;8.20;2.58;;;;;;;16.19;66.96;103053.56;5072352;28;20042;-69
2021/11/19 10:48:34;;;;;;;8.00;2.30;;;;;;;16.20;66.57;103043.06;5056884;27;20118;-68
2021/11/19 10:51:15;;;;;;;7.80;2.80;;;;;;;16.22;66.13;103043.97;5048944;28;20050;-69
2021/11/19 10:54:17;;;;;;;11.35;2.63;;;;;;;16.10;66.05;103042.81;5059013;27;20167;-68
2021/11/19 10:56:50;;;;;;;7.18;2.22;;;;;;;16.08;66.17;103047.16;5054078;28;20048;-68
2021/11/19 10:59:24;;;;;;;9.23;2.50;;;;;;;16.01;66.88;103039.94;5044355;27;20039;-68
2021/11/19 11:02:02;;;;;;;7.53;2.38;;;;;;;15.98;66.46;103047.78;5062692;27;20092;-69
2021/11/19 11:04:53;;;;;;;7.53;2.40;;;;;;;15.95;66.39;103040.69;5062912;28;20059;-68
2021/11/19 11:07:31;;;;;;;7.75;2.42;;;;;;;15.93;66.48;103041.47;5065337;28;20290;-67
2021/11/19 11:09:57;;;;;;;8.43;2.45;;;;;;;15.94;66.97;103035.38;5068187;27;20920;-68
2021/11/19 11:12:32;;;;;;;7.40;2.30;;;;;;;15.98;66.81;103038.09;5063912;28;20940;-68
2021/11/19 11:15:10;;;;;;;10.55;2.53;;;;;;;16.10;66.25;103048.09;5061428;27;20059;-70
2021/11/19 11:17:47;;;;;;;10.40;2.70;;;;;;;16.15;66.21;103051.72;5060380;28;20031;-70
2021/11/19 11:20:38;;;;;;;8.23;2.63;;;;;;;16.24;65.98;103044.91;5050543;28;20508;-70
2021/11/19 11:23:22;;;;;;;7.63;2.20;;;;;;;16.40;65.03;103045.31;5051449;27;20496;-69
2021/11/19 11:26:00;;;;;;;8.65;2.33;;;;;;;16.48;64.91;103043.72;5070564;28;20042;-71
2021/11/19 11:28:52;;;;;;;7.38;2.30;;;;;;;16.50;64.72;103045.56;5050850;28;20800;-70
2021/11/19 11:31:42;;;;;;;9.35;2.58;;;;;;;16.52;63.93;103040.34;5046427;28;20059;-70
2021/11/19 11:34:26;;;;;;;7.30;2.22;;;;;;;16.40;64.63;103051.47;5045257;28;20055;-68